createdAt,value
2019-02-07T00:00:13.520Z,1011.53
2019-02-07T00:01:13.550Z,1011.53
2019-02-07T00:02:13.591Z,1011.45
2019-02-07T00:03:13.665Z,1011.48
2019-02-07T00:04:13.693Z,1011.46
2019-02-07T00:05:13.739Z,1011.36
2019-02-07T00:06:13.714Z,1011.40
2019-02-07T00:07:13.737Z,1011.41
2019-02-07T00:08:13.835Z,1011.37
2019-02-07T00:09:13.846Z,1011.33
2019-02-07T00:10:13.835Z,1011.30
2019-02-07T00:11:13.921Z,1011.31
2019-02-07T00:12:13.944Z,1011.28
2019-02-07T00:13:13.971Z,1011.29
2019-02-07T00:14:13.956Z,1011.26
2019-02-07T00:15:14.031Z,1011.24
2019-02-07T00:16:14.065Z,1011.23
2019-02-07T00:17:14.048Z,1011.19
2019-02-07T00:18:14.129Z,1011.16
2019-02-07T00:19:14.165Z,1011.19
2019-02-07T00:20:14.141Z,1011.19
2019-02-07T00:21:14.219Z,1011.11
2019-02-07T00:22:14.203Z,1011.16
2019-02-07T00:23:14.284Z,1011.08
2019-02-07T00:24:14.287Z,1011.05
2019-02-07T00:25:14.301Z,1011.06
2019-02-07T00:26:14.379Z,1011.04
2019-02-07T00:27:14.402Z,1011.01
2019-02-07T00:28:14.507Z,1011.03
2019-02-07T00:30:14.519Z,1010.95
2019-02-07T00:31:14.478Z,1010.96
2019-02-07T00:32:14.869Z,1010.94
2019-02-07T00:33:14.538Z,1010.84
2019-02-07T00:34:14.571Z,1010.84
2019-02-07T00:35:14.653Z,1010.82
2019-02-07T00:36:14.633Z,1010.83
2019-02-07T00:37:14.722Z,1010.78
2019-02-07T00:39:14.791Z,1010.76
2019-02-07T00:40:14.805Z,1010.75
2019-02-07T00:41:14.795Z,1010.73
2019-02-07T00:42:14.825Z,1010.67
2019-02-07T00:43:14.900Z,1010.63
2019-02-07T00:44:14.897Z,1010.63
2019-02-07T00:45:14.962Z,1010.63
2019-02-07T00:46:14.939Z,1010.57
2019-02-07T00:47:14.975Z,1010.53
2019-02-07T00:48:15.051Z,1010.55
2019-02-07T00:49:15.075Z,1010.55
2019-02-07T00:50:15.075Z,1010.48
2019-02-07T00:51:15.148Z,1010.51
2019-02-07T00:52:15.124Z,1010.49
2019-02-07T00:53:15.260Z,1010.53
2019-02-07T00:54:15.294Z,1010.47
2019-02-07T00:55:15.292Z,1010.54
2019-02-07T00:56:15.305Z,1010.54
2019-02-07T00:57:15.289Z,1010.48
2019-02-07T00:58:15.308Z,1010.44
2019-02-07T00:59:15.402Z,1010.43
2019-02-07T01:00:15.376Z,1010.43
2019-02-07T01:01:15.458Z,1010.38
2019-02-07T01:02:15.434Z,1010.37
2019-02-07T01:03:15.469Z,1010.35
2019-02-07T01:04:15.813Z,1010.34
2019-02-07T01:05:15.529Z,1010.26
2019-02-07T01:06:15.604Z,1010.26
2019-02-07T01:07:15.637Z,1010.25
2019-02-07T01:08:15.621Z,1010.23
2019-02-07T01:09:15.772Z,1010.23
2019-02-07T01:10:15.680Z,1010.21
2019-02-07T01:11:15.713Z,1010.19
2019-02-07T01:12:15.796Z,1010.20
2019-02-07T01:13:15.771Z,1010.18
2019-02-07T01:14:15.802Z,1010.17
2019-02-07T01:15:15.891Z,1010.16
2019-02-07T01:16:15.913Z,1010.13
2019-02-07T01:17:16.145Z,1010.07
2019-02-07T01:18:15.928Z,1010.10
2019-02-07T01:19:16.073Z,1010.08
2019-02-07T01:20:15.995Z,1010.09
2019-02-07T01:21:16.022Z,1010.03
2019-02-07T01:22:16.101Z,1010.03
2019-02-07T01:23:16.084Z,1010.06
2019-02-07T01:24:16.163Z,1010.04
2019-02-07T01:25:16.142Z,1010.04
2019-02-07T01:26:16.171Z,1010.00
2019-02-07T01:27:16.252Z,1009.98
2019-02-07T01:28:16.314Z,1009.98
2019-02-07T01:29:16.366Z,1009.94
2019-02-07T01:30:16.294Z,1009.93
2019-02-07T01:31:16.333Z,1009.91
2019-02-07T01:32:16.409Z,1009.89
2019-02-07T01:33:16.442Z,1009.91
2019-02-07T01:34:16.472Z,1009.91
2019-02-07T01:35:16.498Z,1009.87
2019-02-07T01:36:16.632Z,1009.83
2019-02-07T01:37:16.511Z,1009.81
2019-02-07T01:38:16.595Z,1009.74
2019-02-07T01:39:16.576Z,1009.73
2019-02-07T01:40:16.608Z,1009.71
2019-02-07T01:41:16.931Z,1009.69
2019-02-07T01:42:16.718Z,1009.73
2019-02-07T01:43:16.744Z,1009.70
2019-02-07T01:44:16.729Z,1009.65
2019-02-07T01:45:16.775Z,1009.69
2019-02-07T01:46:16.843Z,1009.65
2019-02-07T01:47:16.875Z,1009.59
2019-02-07T01:48:16.896Z,1009.56
2019-02-07T01:50:16.910Z,1009.60
2019-02-07T01:51:16.949Z,1009.59
2019-02-07T01:52:17.105Z,1009.57
2019-02-07T01:53:17.312Z,1009.54
2019-02-07T01:54:17.039Z,1009.54
2019-02-07T01:55:17.068Z,1009.50
2019-02-07T01:56:17.103Z,1009.48
2019-02-07T01:58:17.210Z,1009.45
2019-02-07T01:59:17.244Z,1009.44
2019-02-07T02:00:17.223Z,1009.44
2019-02-07T02:01:17.256Z,1009.43
2019-02-07T02:02:17.333Z,1009.40
2019-02-07T02:03:17.308Z,1009.41
2019-02-07T02:04:17.400Z,1009.38
2019-02-07T02:05:17.384Z,1009.38
2019-02-07T02:06:17.406Z,1009.37
2019-02-07T02:07:17.481Z,1009.33
2019-02-07T02:08:17.511Z,1009.33
2019-02-07T02:09:17.503Z,1009.31
2019-02-07T02:10:17.576Z,1009.28
2019-02-07T02:11:17.609Z,1009.29
2019-02-07T02:12:18.755Z,1009.21
2019-02-07T02:13:18.002Z,1009.20
2019-02-07T02:14:18.074Z,1009.24
2019-02-07T02:15:24.744Z,1009.17
2019-02-07T02:16:18.129Z,1009.20
2019-02-07T02:17:17.738Z,1009.15
2019-02-07T02:18:17.922Z,1009.20
2019-02-07T02:20:17.886Z,1009.14
2019-02-07T02:21:17.959Z,1009.09
2019-02-07T02:22:17.894Z,1009.04
2019-02-07T02:23:17.977Z,1009.05
2019-02-07T02:24:19.503Z,1009.02
2019-02-07T02:25:18.038Z,1008.94
2019-02-07T02:26:18.025Z,1008.95
2019-02-07T02:27:18.099Z,1008.94
2019-02-07T02:28:18.231Z,1008.93
2019-02-07T02:29:18.177Z,1008.90
2019-02-07T02:30:18.187Z,1008.92
2019-02-07T02:31:18.167Z,1008.88
2019-02-07T02:32:18.200Z,1008.85
2019-02-07T02:34:18.265Z,1008.85
2019-02-07T02:35:18.407Z,1008.82
2019-02-07T02:36:18.325Z,1008.80
2019-02-07T02:38:18.383Z,1008.77
2019-02-07T02:39:18.472Z,1008.77
2019-02-07T02:40:18.598Z,1008.73
2019-02-07T02:41:18.475Z,1008.68
2019-02-07T02:42:18.503Z,1008.72
2019-02-07T02:43:18.542Z,1008.69
2019-02-07T02:44:18.719Z,1008.71
2019-02-07T02:45:18.600Z,1008.66
2019-02-07T02:46:18.624Z,1008.64
2019-02-07T02:47:18.656Z,1008.63
2019-02-07T02:48:18.691Z,1008.62
2019-02-07T02:49:18.820Z,1008.59
2019-02-07T02:50:18.754Z,1008.55
2019-02-07T02:51:18.829Z,1008.54
2019-02-07T02:52:18.815Z,1008.51
2019-02-07T02:53:18.844Z,1008.51
2019-02-07T02:54:18.947Z,1008.49
2019-02-07T02:55:18.908Z,1008.50
2019-02-07T02:56:18.938Z,1008.45
2019-02-07T02:57:18.970Z,1008.42
2019-02-07T02:58:19.057Z,1008.42
2019-02-07T02:59:19.078Z,1008.39
2019-02-07T03:00:19.060Z,1008.41
2019-02-07T03:02:19.174Z,1008.41
2019-02-07T03:03:19.198Z,1008.40
2019-02-07T03:05:19.343Z,1008.38
2019-02-07T03:06:19.294Z,1008.34
2019-02-07T03:07:19.322Z,1008.35
2019-02-07T03:08:19.303Z,1008.30
2019-02-07T03:10:19.411Z,1008.25
2019-02-07T03:11:19.407Z,1008.27
2019-02-07T03:12:19.421Z,1008.20
2019-02-07T03:13:19.452Z,1008.19
2019-02-07T03:14:19.497Z,1008.20
2019-02-07T03:15:19.565Z,1008.14
2019-02-07T03:16:19.606Z,1008.11
2019-02-07T03:17:19.580Z,1008.07
2019-02-07T03:18:19.711Z,1008.06
2019-02-07T03:19:19.716Z,1008.03
2019-02-07T03:20:19.711Z,1008.03
2019-02-07T03:21:19.756Z,1008.05
2019-02-07T03:22:19.794Z,1008.04
2019-02-07T03:23:19.758Z,1008.04
2019-02-07T03:24:19.851Z,1008.00
2019-02-07T03:25:19.828Z,1008.01
2019-02-07T03:26:19.860Z,1007.99
2019-02-07T03:27:19.931Z,1008.01
2019-02-07T03:28:19.963Z,1007.99
2019-02-07T03:29:20.012Z,1007.98
2019-02-07T03:30:19.975Z,1007.97
2019-02-07T03:31:20.064Z,1007.97
2019-02-07T03:32:20.072Z,1007.89
2019-02-07T03:33:20.124Z,1007.90
2019-02-07T03:34:20.150Z,1007.86
2019-02-07T03:35:20.185Z,1007.80
2019-02-07T03:36:20.228Z,1007.75
2019-02-07T03:37:20.189Z,1007.76
2019-02-07T03:38:20.222Z,1007.75
2019-02-07T03:39:20.261Z,1007.74
2019-02-07T03:40:20.286Z,1007.71
2019-02-07T03:41:20.362Z,1007.73
2019-02-07T03:42:20.343Z,1007.68
2019-02-07T03:43:20.519Z,1007.68
2019-02-07T03:44:20.429Z,1007.63
2019-02-07T03:45:20.488Z,1007.65
2019-02-07T03:46:20.515Z,1007.64
2019-02-07T03:47:20.546Z,1007.57
2019-02-07T03:48:20.580Z,1007.50
2019-02-07T03:49:20.561Z,1007.50
2019-02-07T03:50:20.644Z,1007.51
2019-02-07T03:51:20.673Z,1007.49
2019-02-07T03:52:20.696Z,1007.50
2019-02-07T03:53:20.738Z,1007.47
2019-02-07T03:54:20.708Z,1007.45
2019-02-07T03:55:20.751Z,1007.38
2019-02-07T03:56:20.824Z,1007.37
2019-02-07T03:58:20.835Z,1007.32
2019-02-07T03:59:20.870Z,1007.28
2019-02-07T04:00:20.951Z,1007.25
2019-02-07T04:01:20.994Z,1007.25
2019-02-07T04:02:21.014Z,1007.23
2019-02-07T04:03:20.987Z,1007.24
2019-02-07T04:04:21.014Z,1007.23
2019-02-07T04:05:21.043Z,1007.21
2019-02-07T04:06:21.139Z,1007.21
2019-02-07T04:07:21.180Z,1007.20
2019-02-07T04:08:21.143Z,1007.17
2019-02-07T04:09:21.171Z,1007.19
2019-02-07T04:10:21.205Z,1007.15
2019-02-07T04:11:21.278Z,1007.13
2019-02-07T04:12:21.307Z,1007.13
2019-02-07T04:13:21.295Z,1007.13
2019-02-07T04:14:21.328Z,1007.11
2019-02-07T04:15:21.406Z,1007.09
2019-02-07T04:16:21.428Z,1007.04
2019-02-07T04:17:21.463Z,1006.98
2019-02-07T04:18:21.439Z,1006.91
2019-02-07T04:19:21.537Z,1006.93
2019-02-07T04:20:21.519Z,1006.87
2019-02-07T04:21:21.583Z,1006.89
2019-02-07T04:22:21.563Z,1006.89
2019-02-07T04:23:21.652Z,1006.90
2019-02-07T04:24:21.627Z,1006.91
2019-02-07T04:25:21.702Z,1006.87
2019-02-07T04:26:21.740Z,1006.87
2019-02-07T04:27:21.790Z,1006.84
2019-02-07T04:28:21.752Z,1006.89
2019-02-07T04:29:21.792Z,1006.88
2019-02-07T04:30:21.862Z,1006.93
2019-02-07T04:31:21.898Z,1006.91
2019-02-07T04:32:21.926Z,1006.96
2019-02-07T04:34:22.036Z,1007.00
2019-02-07T04:35:22.012Z,1007.00
2019-02-07T04:37:22.079Z,1006.96
2019-02-07T04:38:22.102Z,1006.91
2019-02-07T04:39:22.084Z,1006.89
2019-02-07T04:40:22.113Z,1006.92
2019-02-07T04:41:22.146Z,1006.86
2019-02-07T04:43:22.214Z,1006.86
2019-02-07T04:44:22.304Z,1006.78
2019-02-07T04:45:22.266Z,1006.79
2019-02-07T04:46:27.164Z,1006.79
2019-02-07T04:47:22.388Z,1006.74
2019-02-07T04:49:22.392Z,1006.68
2019-02-07T04:51:22.498Z,1006.64
2019-02-07T04:52:22.560Z,1006.69
2019-02-07T04:53:22.514Z,1006.63
2019-02-07T04:54:22.540Z,1006.60
2019-02-07T04:55:22.579Z,1006.60
2019-02-07T04:56:22.760Z,1006.53
2019-02-07T04:57:22.696Z,1006.55
2019-02-07T04:58:22.672Z,1006.52
2019-02-07T04:59:22.754Z,1006.54
2019-02-07T05:00:22.730Z,1006.54
2019-02-07T05:01:22.808Z,1006.52
2019-02-07T05:02:22.833Z,1006.52
2019-02-07T05:03:22.848Z,1006.48
2019-02-07T05:04:22.901Z,1006.43
2019-02-07T05:05:22.891Z,1006.44
2019-02-07T05:06:22.959Z,1006.40
2019-02-07T05:07:22.993Z,1006.37
2019-02-07T05:08:23.121Z,1006.39
2019-02-07T05:09:23.020Z,1006.34
2019-02-07T05:10:23.031Z,1006.32
2019-02-07T05:11:23.116Z,1006.30
2019-02-07T05:12:23.110Z,1006.27
2019-02-07T05:13:23.173Z,1006.24
2019-02-07T05:14:23.200Z,1006.26
2019-02-07T05:15:23.183Z,1006.25
2019-02-07T05:16:23.262Z,1006.22
2019-02-07T05:17:23.253Z,1006.15
2019-02-07T05:18:23.289Z,1006.20
2019-02-07T05:19:23.370Z,1006.15
2019-02-07T05:20:23.434Z,1006.16
2019-02-07T05:21:23.415Z,1006.16
2019-02-07T05:22:23.497Z,1006.16
2019-02-07T05:23:23.480Z,1006.14
2019-02-07T05:24:23.563Z,1006.12
2019-02-07T05:25:23.488Z,1006.10
2019-02-07T05:26:23.628Z,1006.08
2019-02-07T05:27:23.698Z,1006.06
2019-02-07T05:28:23.634Z,1006.04
2019-02-07T05:29:23.610Z,1006.05
2019-02-07T05:30:23.721Z,1006.01
2019-02-07T05:31:23.670Z,1006.00
2019-02-07T05:32:23.703Z,1005.98
2019-02-07T05:33:23.786Z,1006.00
2019-02-07T05:34:23.821Z,1006.03
2019-02-07T05:35:23.904Z,1006.01
2019-02-07T05:37:23.865Z,1005.91
2019-02-07T05:38:23.892Z,1005.85
2019-02-07T05:40:24.001Z,1005.84
2019-02-07T05:41:24.030Z,1005.79
2019-02-07T05:42:24.312Z,1005.76
2019-02-07T05:43:24.108Z,1005.81
2019-02-07T05:44:24.135Z,1005.77
2019-02-07T05:45:24.104Z,1005.75
2019-02-07T05:46:24.189Z,1005.76
2019-02-07T05:47:24.161Z,1005.72
2019-02-07T05:48:24.243Z,1005.67
2019-02-07T05:49:24.218Z,1005.63
2019-02-07T05:50:24.365Z,1005.58
2019-02-07T05:51:24.336Z,1005.56
2019-02-07T05:52:24.380Z,1005.58
2019-02-07T05:53:24.399Z,1005.60
2019-02-07T05:54:24.432Z,1005.58
2019-02-07T05:55:24.411Z,1005.52
2019-02-07T05:57:24.531Z,1005.48
2019-02-07T05:58:24.603Z,1005.41
2019-02-07T05:59:24.657Z,1005.37
2019-02-07T06:00:24.562Z,1005.43
2019-02-07T06:01:24.664Z,1005.39
2019-02-07T06:02:24.679Z,1005.34
2019-02-07T06:03:24.704Z,1005.34
2019-02-07T06:04:24.682Z,1005.35
2019-02-07T06:05:24.766Z,1005.33
2019-02-07T06:06:24.742Z,1005.32
2019-02-07T06:07:24.821Z,1005.30
2019-02-07T06:08:24.856Z,1005.32
2019-02-07T06:09:24.898Z,1005.28
2019-02-07T06:11:24.950Z,1005.23
2019-02-07T06:12:24.973Z,1005.16
2019-02-07T06:13:24.954Z,1005.18
2019-02-07T06:14:24.988Z,1005.13
2019-02-07T06:15:25.068Z,1005.15
2019-02-07T06:16:25.048Z,1005.08
2019-02-07T06:17:25.125Z,1005.10
2019-02-07T06:18:25.108Z,1005.08
2019-02-07T06:19:25.199Z,1005.10
2019-02-07T06:20:25.169Z,1005.05
2019-02-07T06:21:25.254Z,1005.06
2019-02-07T06:22:25.287Z,1005.08
2019-02-07T06:23:25.269Z,1005.06
2019-02-07T06:24:25.295Z,1005.09
2019-02-07T06:25:25.323Z,1005.06
2019-02-07T06:26:25.468Z,1005.00
2019-02-07T06:28:25.470Z,1005.08
2019-02-07T06:29:25.507Z,1005.09
2019-02-07T06:30:25.495Z,1005.11
2019-02-07T06:31:25.608Z,1005.05
2019-02-07T06:32:25.552Z,1005.05
2019-02-07T06:33:25.567Z,1005.05
2019-02-07T06:34:29.176Z,1005.09
2019-02-07T06:35:25.681Z,1005.09
2019-02-07T06:37:25.820Z,1005.07
2019-02-07T06:38:25.724Z,1005.07
2019-02-07T06:39:28.434Z,1005.06
2019-02-07T06:40:25.844Z,1005.09
2019-02-07T06:41:25.832Z,1005.06
2019-02-07T06:42:25.847Z,1005.05
2019-02-07T06:43:25.923Z,1005.07
2019-02-07T06:45:25.985Z,1005.08
2019-02-07T06:46:26.062Z,1005.09
2019-02-07T06:47:26.052Z,1005.08
2019-02-07T06:48:26.321Z,1005.07
2019-02-07T06:49:26.059Z,1005.07
2019-02-07T06:50:26.153Z,1005.04
2019-02-07T06:51:26.185Z,1005.07
2019-02-07T06:52:26.151Z,1005.07
2019-02-07T06:53:26.186Z,1005.10
2019-02-07T06:54:26.211Z,1005.06
2019-02-07T06:55:26.241Z,1005.06
2019-02-07T06:56:26.324Z,1005.07
2019-02-07T06:57:26.366Z,1005.02
2019-02-07T06:58:26.348Z,1005.02
2019-02-07T06:59:26.424Z,1005.03
2019-02-07T07:00:26.438Z,1005.00
2019-02-07T07:01:26.485Z,1004.95
2019-02-07T07:02:26.466Z,1004.99
2019-02-07T07:03:26.538Z,1005.00
2019-02-07T07:04:26.508Z,1005.01
2019-02-07T07:05:26.544Z,1004.94
2019-02-07T07:06:26.628Z,1004.93
2019-02-07T07:07:26.991Z,1004.94
2019-02-07T07:08:26.635Z,1004.93
2019-02-07T07:09:26.731Z,1004.94
2019-02-07T07:10:26.756Z,1004.95
2019-02-07T07:11:26.776Z,1004.95
2019-02-07T07:12:26.913Z,1004.93
2019-02-07T07:13:26.842Z,1005.00
2019-02-07T07:14:26.839Z,1004.99
2019-02-07T07:15:26.917Z,1004.96
2019-02-07T07:16:26.880Z,1004.99
2019-02-07T07:17:27.449Z,1004.93
2019-02-07T07:18:26.990Z,1004.95
2019-02-07T07:19:27.021Z,1004.92
2019-02-07T07:20:27.057Z,1004.97
2019-02-07T07:22:27.065Z,1004.97
2019-02-07T07:23:27.095Z,1004.97
2019-02-07T07:25:27.205Z,1004.94
2019-02-07T07:26:27.188Z,1004.96
2019-02-07T07:27:27.269Z,1004.98
2019-02-07T07:28:27.243Z,1005.00
2019-02-07T07:29:27.273Z,1004.99
2019-02-07T07:30:27.364Z,1004.99
2019-02-07T07:32:27.432Z,1005.01
2019-02-07T07:34:27.429Z,1005.01
2019-02-07T07:35:27.507Z,1004.99
2019-02-07T07:36:27.545Z,1005.02
2019-02-07T07:37:27.587Z,1005.03
2019-02-07T07:38:27.552Z,1004.95
2019-02-07T07:39:27.584Z,1004.94
2019-02-07T07:40:27.666Z,1004.95
2019-02-07T07:41:27.645Z,1004.96
2019-02-07T07:42:27.719Z,1004.92
2019-02-07T07:43:30.334Z,1004.92
2019-02-07T07:44:27.827Z,1004.91
2019-02-07T07:45:27.774Z,1004.91
2019-02-07T07:46:27.799Z,1004.96
2019-02-07T07:47:35.760Z,1004.94
2019-02-07T07:48:27.860Z,1004.97
2019-02-07T07:49:27.947Z,1004.97
2019-02-07T07:50:27.920Z,1005.01
2019-02-07T07:51:27.999Z,1005.00
2019-02-07T07:53:28.066Z,1005.04
2019-02-07T07:54:28.048Z,1005.06
2019-02-07T07:55:28.121Z,1005.05
2019-02-07T07:56:28.200Z,1005.04
2019-02-07T07:57:28.130Z,1005.06
2019-02-07T07:58:28.215Z,1005.08
2019-02-07T07:59:28.260Z,1005.09
2019-02-07T08:01:28.306Z,1005.13
2019-02-07T08:02:28.336Z,1005.13
2019-02-07T08:03:28.368Z,1005.16
2019-02-07T08:04:28.353Z,1005.17
2019-02-07T08:05:28.434Z,1005.20
2019-02-07T08:06:28.459Z,1005.17
2019-02-07T08:07:28.499Z,1005.19
2019-02-07T08:08:28.475Z,1005.15
2019-02-07T08:09:28.553Z,1005.20
2019-02-07T08:10:28.582Z,1005.21
2019-02-07T08:11:28.611Z,1005.19
2019-02-07T08:12:28.593Z,1005.22
2019-02-07T08:13:28.626Z,1005.21
2019-02-07T08:14:28.650Z,1005.23
2019-02-07T08:15:28.789Z,1005.24
2019-02-07T08:16:28.764Z,1005.23
2019-02-07T08:17:28.800Z,1005.20
2019-02-07T08:18:28.780Z,1005.24
2019-02-07T08:19:29.165Z,1005.23
2019-02-07T08:21:28.917Z,1005.22
2019-02-07T08:22:28.904Z,1005.23
2019-02-07T08:23:29.008Z,1005.23
2019-02-07T08:24:28.957Z,1005.28
2019-02-07T08:25:29.039Z,1005.34
2019-02-07T08:26:29.027Z,1005.30
2019-02-07T08:28:29.094Z,1005.27
2019-02-07T08:29:29.111Z,1005.29
2019-02-07T08:30:36.176Z,1005.29
2019-02-07T08:31:29.229Z,1005.31
2019-02-07T08:32:29.210Z,1005.30
2019-02-07T08:33:29.235Z,1005.32
2019-02-07T08:34:29.322Z,1005.32
2019-02-07T08:35:29.410Z,1005.30
2019-02-07T08:36:29.327Z,1005.32
2019-02-07T08:37:29.362Z,1005.37
2019-02-07T08:38:29.391Z,1005.38
2019-02-07T08:39:29.480Z,1005.40
2019-02-07T08:40:29.505Z,1005.41
2019-02-07T08:41:29.488Z,1005.45
2019-02-07T08:42:29.561Z,1005.49
2019-02-07T08:44:29.656Z,1005.52
2019-02-07T08:45:29.657Z,1005.50
2019-02-07T08:46:29.690Z,1005.51
2019-02-07T08:47:29.737Z,1005.49
2019-02-07T08:48:29.704Z,1005.53
2019-02-07T08:49:29.781Z,1005.53
2019-02-07T08:50:29.882Z,1005.47
2019-02-07T08:51:29.853Z,1005.51
2019-02-07T08:52:29.870Z,1005.51
2019-02-07T08:53:29.854Z,1005.55
2019-02-07T08:54:29.882Z,1005.56
2019-02-07T08:55:29.913Z,1005.63
2019-02-07T08:56:29.998Z,1005.69
2019-02-07T08:58:30.006Z,1005.72
2019-02-07T08:59:30.086Z,1005.70
2019-02-07T09:00:30.171Z,1005.68
2019-02-07T09:01:30.154Z,1005.64
2019-02-07T09:02:30.227Z,1005.65
2019-02-07T09:03:30.164Z,1005.68
2019-02-07T09:04:30.202Z,1005.73
2019-02-07T09:05:30.223Z,1005.76
2019-02-07T09:06:30.309Z,1005.78
2019-02-07T09:07:32.227Z,1005.70
2019-02-07T09:08:30.368Z,1005.68
2019-02-07T09:09:30.344Z,1005.71
2019-02-07T09:10:30.372Z,1005.77
2019-02-07T09:11:30.461Z,1005.76
2019-02-07T09:12:30.484Z,1005.73
2019-02-07T09:15:30.586Z,1005.78
2019-02-07T09:16:30.612Z,1005.88
2019-02-07T09:17:30.652Z,1005.90
2019-02-07T09:18:30.622Z,1005.94
2019-02-07T09:19:30.756Z,1005.96
2019-02-07T09:20:30.681Z,1005.92
2019-02-07T09:21:30.713Z,1005.97
2019-02-07T09:22:30.806Z,1005.91
2019-02-07T09:23:30.827Z,1006.00
2019-02-07T09:24:30.861Z,1005.95
2019-02-07T09:25:34.288Z,1005.99
2019-02-07T09:26:30.925Z,1005.97
2019-02-07T09:28:30.983Z,1005.94
2019-02-07T09:29:30.964Z,1005.89
2019-02-07T09:30:30.996Z,1005.92
2019-02-07T09:31:31.077Z,1005.94
2019-02-07T09:32:31.070Z,1005.86
2019-02-07T09:34:31.165Z,1005.95
2019-02-07T09:35:31.208Z,1005.98
2019-02-07T09:36:31.234Z,1006.01
2019-02-07T09:37:31.214Z,1006.01
2019-02-07T09:38:31.246Z,1006.05
2019-02-07T09:39:31.321Z,1006.04
2019-02-07T09:40:31.350Z,1006.07
2019-02-07T09:41:31.384Z,1006.06
2019-02-07T09:42:31.367Z,1006.06
2019-02-07T09:43:31.399Z,1006.09
2019-02-07T09:44:31.535Z,1006.05
2019-02-07T09:45:31.461Z,1006.08
2019-02-07T09:46:31.554Z,1006.08
2019-02-07T09:47:31.573Z,1006.05
2019-02-07T09:48:31.596Z,1006.12
2019-02-07T09:50:31.610Z,1006.13
2019-02-07T09:51:31.695Z,1006.16
2019-02-07T09:52:31.723Z,1006.11
2019-02-07T09:53:31.706Z,1006.15
2019-02-07T09:54:31.736Z,1006.07
2019-02-07T09:55:31.818Z,1006.08
2019-02-07T09:56:31.797Z,1006.14
2019-02-07T09:57:31.876Z,1006.13
2019-02-07T09:58:31.862Z,1006.14
2019-02-07T09:59:32.036Z,1006.13
2019-02-07T10:00:31.972Z,1006.09
2019-02-07T10:01:32.001Z,1006.15
2019-02-07T10:02:31.982Z,1006.13
2019-02-07T10:03:32.059Z,1006.13
2019-02-07T10:04:32.200Z,1006.12
2019-02-07T10:05:32.077Z,1006.17
2019-02-07T10:06:32.158Z,1006.13
2019-02-07T10:07:32.184Z,1006.20
2019-02-07T10:08:32.168Z,1006.21
2019-02-07T10:09:32.264Z,1006.03
2019-02-07T10:10:32.284Z,1006.21
2019-02-07T10:11:32.314Z,1006.26
2019-02-07T10:12:32.383Z,1006.22
2019-02-07T10:13:32.323Z,1006.22
2019-02-07T10:15:32.433Z,1006.24
2019-02-07T10:16:32.467Z,1006.22
2019-02-07T10:17:32.440Z,1006.21
2019-02-07T10:18:33.329Z,1006.27
2019-02-07T10:19:32.801Z,1006.24
2019-02-07T10:20:32.585Z,1006.30
2019-02-07T10:21:32.569Z,1006.27
2019-02-07T10:22:32.611Z,1006.28
2019-02-07T10:23:32.683Z,1006.31
2019-02-07T10:24:32.710Z,1006.36
2019-02-07T10:25:32.694Z,1006.29
2019-02-07T10:26:32.723Z,1006.33
2019-02-07T10:27:32.810Z,1006.29
2019-02-07T10:28:32.813Z,1006.31
2019-02-07T10:29:32.867Z,1006.26
2019-02-07T10:30:32.943Z,1006.28
2019-02-07T10:31:32.879Z,1006.37
2019-02-07T10:32:32.917Z,1006.38
2019-02-07T10:33:32.952Z,1006.37
2019-02-07T10:35:33.050Z,1006.28
2019-02-07T10:36:33.083Z,1006.33
2019-02-07T10:38:33.151Z,1006.22
2019-02-07T10:39:33.178Z,1006.21
2019-02-07T10:40:33.214Z,1006.29
2019-02-07T10:41:33.259Z,1006.28
2019-02-07T10:42:33.269Z,1006.25
2019-02-07T10:43:33.253Z,1006.21
2019-02-07T10:44:33.386Z,1006.27
2019-02-07T10:45:33.365Z,1006.29
2019-02-07T10:46:33.343Z,1006.23
2019-02-07T10:47:33.371Z,1006.27
2019-02-07T10:48:43.959Z,1006.30
2019-02-07T10:49:33.490Z,1006.39
2019-02-07T10:50:33.465Z,1006.35
2019-02-07T10:51:33.551Z,1006.34
2019-02-07T10:52:33.594Z,1006.42
2019-02-07T10:53:33.605Z,1006.35
2019-02-07T10:54:33.640Z,1006.36
2019-02-07T10:55:33.670Z,1006.32
2019-02-07T10:56:33.666Z,1006.37
2019-02-07T10:57:33.687Z,1006.31
2019-02-07T10:58:33.715Z,1006.27
2019-02-07T10:59:33.793Z,1006.31
2019-02-07T11:00:33.831Z,1006.24
2019-02-07T11:01:33.860Z,1006.34
2019-02-07T11:02:33.845Z,1006.24
2019-02-07T11:03:33.963Z,1006.23
2019-02-07T11:04:33.912Z,1006.27
2019-02-07T11:05:34.040Z,1006.23
2019-02-07T11:06:34.126Z,1006.26
2019-02-07T11:07:33.991Z,1006.30
2019-02-07T11:08:34.023Z,1006.27
2019-02-07T11:09:34.058Z,1006.29
2019-02-07T11:10:34.195Z,1006.18
2019-02-07T11:11:34.173Z,1006.17
2019-02-07T11:12:34.249Z,1006.17
2019-02-07T11:13:34.177Z,1006.29
2019-02-07T11:14:34.328Z,1006.20
2019-02-07T11:15:34.318Z,1006.21
2019-02-07T11:16:34.469Z,1006.18
2019-02-07T11:17:34.361Z,1006.25
2019-02-07T11:18:34.335Z,1006.17
2019-02-07T11:19:34.380Z,1006.18
2019-02-07T11:20:34.460Z,1006.18
2019-02-07T11:21:34.600Z,1006.19
2019-02-07T11:22:34.464Z,1006.18
2019-02-07T11:23:34.603Z,1006.20
2019-02-07T11:24:34.579Z,1006.19
2019-02-07T11:25:34.552Z,1006.13
2019-02-07T11:26:34.597Z,1006.15
2019-02-07T11:27:34.664Z,1006.19
2019-02-07T11:28:34.649Z,1006.11
2019-02-07T11:29:34.800Z,1006.11
2019-02-07T11:30:34.723Z,1006.06
2019-02-07T11:31:34.837Z,1006.09
2019-02-07T11:32:34.776Z,1006.07
2019-02-07T11:33:34.811Z,1006.01
2019-02-07T11:34:35.037Z,1006.00
2019-02-07T11:35:34.869Z,1006.06
2019-02-07T11:37:34.975Z,1006.09
2019-02-07T11:38:35.048Z,1006.09
2019-02-07T11:41:35.101Z,1005.99
2019-02-07T11:42:35.087Z,1006.00
2019-02-07T11:43:35.114Z,1005.99
2019-02-07T11:44:35.162Z,1006.02
2019-02-07T11:45:35.181Z,1006.01
2019-02-07T11:46:37.604Z,1006.07
2019-02-07T11:47:35.292Z,1006.08
2019-02-07T11:48:35.268Z,1006.11
2019-02-07T11:49:35.450Z,1006.11
2019-02-07T11:50:35.384Z,1006.09
2019-02-07T11:51:35.409Z,1006.00
2019-02-07T11:52:35.441Z,1006.08
2019-02-07T11:53:35.431Z,1006.01
2019-02-07T11:54:35.515Z,1006.03
2019-02-07T11:56:35.526Z,1006.11
2019-02-07T11:57:35.610Z,1006.11
2019-02-07T11:58:35.582Z,1006.04
2019-02-07T11:59:35.665Z,1006.10
2019-02-07T12:00:35.652Z,1006.03
2019-02-07T12:01:35.670Z,1006.01
2019-02-07T12:02:35.788Z,1006.03
2019-02-07T12:03:35.790Z,1006.01
2019-02-07T12:04:36.023Z,1006.01
2019-02-07T12:05:35.808Z,1006.05
2019-02-07T12:06:35.834Z,1006.02
2019-02-07T12:08:35.939Z,1005.99
2019-02-07T12:09:35.989Z,1006.00
2019-02-07T12:10:35.957Z,1005.95
2019-02-07T12:11:36.037Z,1005.93
2019-02-07T12:12:36.069Z,1005.92
2019-02-07T12:13:36.044Z,1005.94
2019-02-07T12:14:36.172Z,1005.88
2019-02-07T12:15:36.159Z,1005.91
2019-02-07T12:16:36.171Z,1005.87
2019-02-07T12:17:36.267Z,1005.83
2019-02-07T12:18:36.209Z,1005.82
2019-02-07T12:19:36.314Z,1005.81
2019-02-07T12:20:36.319Z,1005.79
2019-02-07T12:21:36.301Z,1005.75
2019-02-07T12:22:37.481Z,1005.69
2019-02-07T12:23:36.429Z,1005.73
2019-02-07T12:24:36.437Z,1005.77
2019-02-07T12:25:36.424Z,1005.77
2019-02-07T12:26:36.455Z,1005.74
2019-02-07T12:28:36.570Z,1005.78
2019-02-07T12:29:36.548Z,1005.75
2019-02-07T12:30:36.590Z,1005.81
2019-02-07T12:31:36.664Z,1005.68
2019-02-07T12:32:36.640Z,1005.73
2019-02-07T12:33:36.722Z,1005.73
2019-02-07T12:34:36.703Z,1005.71
2019-02-07T12:36:36.820Z,1005.68
2019-02-07T12:37:36.854Z,1005.82
2019-02-07T12:38:36.982Z,1005.79
2019-02-07T12:39:36.918Z,1005.73
2019-02-07T12:40:36.955Z,1005.86
2019-02-07T12:41:36.971Z,1005.89
2019-02-07T12:42:37.013Z,1005.85
2019-02-07T12:43:37.061Z,1005.85
2019-02-07T12:44:37.071Z,1005.86
2019-02-07T12:45:37.263Z,1005.78
2019-02-07T12:46:37.078Z,1005.87
2019-02-07T12:47:37.345Z,1005.90
2019-02-07T12:48:37.194Z,1005.84
2019-02-07T12:49:37.184Z,1005.85
2019-02-07T12:50:37.208Z,1005.84
2019-02-07T12:51:37.299Z,1005.95
2019-02-07T12:52:37.268Z,1005.78
2019-02-07T12:53:37.347Z,1005.82